Time;durP1;ratioP1;P1;durP2;ratioP2;P2;SDS_P1;SDS_P2;PMS_P1;PMS_P2;Temp;Humidity;BMP_temperature;BMP_pressure;BME280_temperature;BME280_humidity;BME280_pressure;Samples;Min_cycle;Max_cycle;Signal;HPM_P1;HPM_P2
2021/07/15 00:00:44;;;;;;;8.30;7.50;;;;;;;32.89;29.22;94332.47;5040294;28;20056;-54
2021/07/15 00:03:13;;;;;;;10.02;8.00;;;;;;;33.15;29.20;94332.53;5055814;28;20041;-53
2021/07/15 00:05:40;;;;;;;8.85;7.47;;;;;;;32.97;29.49;94333.78;5055889;28;20489;-52
2021/07/15 00:08:08;;;;;;;13.18;7.43;;;;;;;32.92;29.51;94337.03;5055699;28;20049;-53
2021/07/15 00:10:43;;;;;;;8.77;7.97;;;;;;;32.76;29.50;94335.13;5054815;28;20505;-55
2021/07/15 00:13:10;;;;;;;8.45;7.65;;;;;;;32.86;29.16;94340.69;5055515;28;20044;-52
2021/07/15 00:15:40;;;;;;;8.75;7.80;;;;;;;32.82;29.37;94340.06;5055769;28;20049;-53
2021/07/15 00:18:09;;;;;;;9.70;7.60;;;;;;;33.05;28.75;94340.53;5055603;28;20049;-54
2021/07/15 00:20:43;;;;;;;11.18;8.18;;;;;;;32.94;29.23;94340.06;5055005;28;20371;-55
2021/07/15 00:23:11;;;;;;;9.63;8.05;;;;;;;32.64;29.46;94343.22;5055228;28;20052;-51
2021/07/15 00:25:39;;;;;;;9.60;7.80;;;;;;;33.20;28.34;94350.94;5055237;28;20053;-53
2021/07/15 00:28:06;;;;;;;10.13;7.72;;;;;;;32.75;29.08;94355.25;5055270;28;20447;-52
2021/07/15 00:30:34;;;;;;;9.00;8.02;;;;;;;32.31;29.42;94354.13;5055185;28;20501;-53
2021/07/15 00:33:02;;;;;;;11.35;8.02;;;;;;;32.70;28.62;94355.03;5053774;28;20049;-52
2021/07/15 00:35:30;;;;;;;9.73;8.20;;;;;;;32.80;28.48;94349.34;5055335;28;20080;-51
2021/07/15 00:37:58;;;;;;;9.50;7.93;;;;;;;32.90;28.61;94355.66;5055146;28;20362;-53
2021/07/15 00:40:25;;;;;;;9.30;8.40;;;;;;;32.41;29.31;94347.66;5054257;28;20052;-52
2021/07/15 00:42:52;;;;;;;10.00;7.53;;;;;;;32.91;28.74;94351.75;5053194;28;20045;-51
2021/07/15 00:45:19;;;;;;;9.07;7.75;;;;;;;32.28;29.76;94340.69;5055281;28;20041;-51
2021/07/15 00:47:47;;;;;;;8.45;7.50;;;;;;;33.06;29.07;94342.06;5054022;28;20045;-52
2021/07/15 00:50:17;;;;;;;8.68;7.78;;;;;;;33.04;28.76;94339.00;5053878;28;20336;-51
2021/07/15 00:52:44;;;;;;;8.93;7.82;;;;;;;32.50;29.84;94339.69;5054676;28;20053;-52
2021/07/15 00:55:22;;;;;;;9.55;7.68;;;;;;;32.87;28.88;94339.50;5054604;28;20041;-53
2021/07/15 00:57:50;;;;;;;8.50;7.63;;;;;;;32.50;29.84;94339.69;5036485;28;20371;-53
2021/07/15 01:00:18;;;;;;;9.38;7.90;;;;;;;32.82;29.49;94331.94;5036986;28;20056;-53
2021/07/15 01:02:46;;;;;;;8.90;8.00;;;;;;;32.08;30.85;94343.50;5054706;28;20063;-52
2021/07/15 01:05:16;;;;;;;10.48;8.13;;;;;;;32.61;29.26;94339.41;5054817;28;20044;-52
2021/07/15 01:07:43;;;;;;;9.57;8.20;;;;;;;32.32;30.11;94336.72;5053940;28;20379;-52
2021/07/15 01:10:12;;;;;;;8.60;7.80;;;;;;;32.69;29.29;94339.97;5053780;28;20064;-52
2021/07/15 01:13:05;;;;;;;9.07;8.18;;;;;;;32.48;29.79;94339.34;5053540;28;20053;-53
2021/07/15 01:15:58;;;;;;;9.43;8.48;;;;;;;32.40;30.00;94335.34;5054097;28;20051;-54
2021/07/15 01:18:35;;;;;;;10.70;8.23;;;;;;;32.37;29.98;94338.88;5052709;28;20411;-54
2021/07/15 01:21:20;;;;;;;10.15;8.15;;;;;;;32.10;31.00;94330.31;5054397;28;20391;-54
2021/07/15 01:24:38;;;;;;;8.65;7.78;;;;;;;32.79;29.53;94338.94;5053406;28;20060;-51
2021/07/15 01:27:29;;;;;;;9.32;8.35;;;;;;;32.57;30.04;94343.41;5037177;28;20057;-54
2021/07/15 01:30:08;;;;;;;8.63;7.78;;;;;;;32.64;30.45;94337.78;5053842;28;20060;-52
2021/07/15 01:32:57;;;;;;;8.27;7.53;;;;;;;32.58;30.92;94339.50;5054004;28;20049;-52
2021/07/15 01:35:32;;;;;;;9.25;8.25;;;;;;;32.61;30.45;94333.25;5054366;28;20055;-54
2021/07/15 01:38:02;;;;;;;9.48;7.88;;;;;;;32.68;30.42;94333.81;5053813;28;20052;-52
2021/07/15 01:40:40;;;;;;;8.60;7.78;;;;;;;32.57;30.78;94338.75;5053114;28;20044;-54
2021/07/15 01:43:10;;;;;;;10.75;8.23;;;;;;;32.38;30.89;94337.72;5053223;28;20045;-51
2021/07/15 01:45:38;;;;;;;8.70;7.90;;;;;;;32.78;30.50;94340.84;5053370;28;20052;-52
2021/07/15 01:48:06;;;;;;;9.05;8.15;;;;;;;32.41;31.24;94342.25;5053379;28;20045;-53
2021/07/15 01:50:33;;;;;;;8.90;8.10;;;;;;;32.87;30.39;94345.69;5054101;28;20463;-53
2021/07/15 01:53:01;;;;;;;9.00;8.05;;;;;;;32.24;31.77;94343.44;5052981;28;20053;-53
2021/07/15 01:55:29;;;;;;;8.02;7.10;;;;;;;32.58;31.27;94347.63;5053983;28;20040;-52
2021/07/15 01:57:56;;;;;;;8.50;7.60;;;;;;;32.24;32.02;94348.09;5035583;28;20060;-52
2021/07/15 02:00:23;;;;;;;10.15;7.97;;;;;;;32.94;30.55;94342.78;5036309;28;20041;-52
2021/07/15 02:02:52;;;;;;;9.68;8.77;;;;;;;32.49;31.52;94343.56;5054002;28;20049;-54
2021/07/15 02:05:20;;;;;;;9.68;7.70;;;;;;;32.82;31.10;94354.34;5054110;28;20045;-53
2021/07/15 02:07:48;;;;;;;9.13;8.32;;;;;;;32.37;31.19;94349.72;5054040;28;20056;-52
2021/07/15 02:10:20;;;;;;;13.50;8.10;;;;;;;32.68;31.12;94351.97;5053167;28;20048;-54
2021/07/15 02:12:48;;;;;;;8.95;7.32;;;;;;;32.79;30.93;94349.75;5053864;28;20056;-55
2021/07/15 02:15:15;;;;;;;8.60;7.82;;;;;;;32.65;31.23;94360.97;5054188;28;20060;-53
2021/07/15 02:17:43;;;;;;;8.93;8.13;;;;;;;32.06;32.14;94345.84;5053852;28;20053;-51
2021/07/15 02:20:14;;;;;;;9.18;8.27;;;;;;;32.63;30.78;94352.50;5054132;28;20048;-56
2021/07/15 02:22:42;;;;;;;8.70;7.80;;;;;;;32.65;31.27;94350.13;5052428;28;20053;-52
2021/07/15 02:25:10;;;;;;;9.20;8.30;;;;;;;32.66;31.13;94357.81;5053573;28;20383;-53
2021/07/15 02:27:39;;;;;;;9.05;8.10;;;;;;;32.11;31.67;94346.09;5036197;28;20053;-53
2021/07/15 02:30:12;;;;;;;9.15;8.25;;;;;;;32.51;31.01;94341.19;5036188;28;20099;-53
2021/07/15 02:32:39;;;;;;;8.70;7.90;;;;;;;32.79;30.65;94349.75;5045159;28;20049;-53
2021/07/15 02:35:18;;;;;;;10.07;8.20;;;;;;;32.24;31.62;94354.25;5052995;28;20040;-52
2021/07/15 02:37:46;;;;;;;8.38;7.57;;;;;;;32.40;31.58;94346.16;5036148;28;20041;-53
2021/07/15 02:40:15;;;;;;;11.20;8.20;;;;;;;32.23;32.05;94347.34;5053192;28;20056;-56
2021/07/15 02:42:44;;;;;;;8.43;7.70;;;;;;;32.19;32.05;94335.84;5053298;28;20475;-52
2021/07/15 02:45:14;;;;;;;8.95;8.25;;;;;;;31.90;32.70;94349.31;5055825;28;20055;-53
2021/07/15 02:47:43;;;;;;;8.55;7.85;;;;;;;32.29;31.75;94340.28;5057202;28;20481;-52
2021/07/15 02:50:11;;;;;;;8.82;8.00;;;;;;;32.12;32.35;94342.22;5039299;28;20060;-51
2021/07/15 02:52:39;;;;;;;9.30;8.50;;;;;;;32.22;32.02;94345.81;5056895;28;20087;-51
2021/07/15 02:55:06;;;;;;;10.07;8.65;;;;;;;32.32;31.84;94344.81;5056473;28;20047;-54
2021/07/15 02:57:54;;;;;;;10.63;8.93;;;;;;;32.39;31.62;94344.63;5039667;28;20053;-51
2021/07/15 03:00:21;;;;;;;9.90;8.60;;;;;;;32.27;32.29;94353.47;5049779;28;20048;-54
2021/07/15 03:03:13;;;;;;;10.25;9.20;;;;;;;31.83;32.82;94342.16;5055619;28;20041;-54
2021/07/15 03:05:58;;;;;;;10.00;8.40;;;;;;;31.76;33.24;94344.28;5057055;28;20053;-53
2021/07/15 03:08:30;;;;;;;8.85;8.00;;;;;;;31.97;32.80;94351.84;5056850;28;20045;-51
2021/07/15 03:10:57;;;;;;;;;;;;;;;32.27;32.49;94344.56;5039191;28;20064;-54
2021/07/15 03:13:25;;;;;;;12.63;9.38;;;;;;;31.72;33.59;94352.44;5039164;28;19927;-51
2021/07/15 03:15:52;;;;;;;9.52;8.52;;;;;;;32.33;32.32;94351.75;5055855;28;20045;-52
2021/07/15 03:18:21;;;;;;;12.15;8.98;;;;;;;32.48;32.58;94357.53;5055519;28;20057;-51
2021/07/15 03:20:48;;;;;;;10.35;8.98;;;;;;;32.26;33.01;94351.91;5055575;28;20044;-55
2021/07/15 03:23:20;;;;;;;9.70;8.68;;;;;;;31.80;33.64;94358.44;5056523;28;20059;-52
2021/07/15 03:25:48;;;;;;;;;;;;;;;32.30;33.08;94357.25;5070117;28;20064;-52
2021/07/15 03:28:17;;;;;;;9.25;8.35;;;;;;;32.26;33.26;94354.63;5056622;28;20239;-51
2021/07/15 03:30:46;;;;;;;9.82;8.82;;;;;;;32.23;33.04;94352.75;5038782;28;20052;-53
2021/07/15 03:33:14;;;;;;;10.30;9.40;;;;;;;32.06;33.75;94353.97;5056227;28;20049;-52
2021/07/15 03:35:42;;;;;;;10.88;8.75;;;;;;;32.23;33.54;94352.75;5056515;28;20439;-51
2021/07/15 03:38:10;;;;;;;11.98;8.68;;;;;;;31.79;34.15;94346.88;5038861;28;20367;-54
2021/07/15 03:40:37;;;;;;;16.52;9.43;;;;;;;31.86;34.27;94357.50;5055643;28;20053;-51
2021/07/15 03:43:08;;;;;;;10.25;9.02;;;;;;;32.22;33.80;94348.53;5055501;28;20049;-53
2021/07/15 03:45:35;;;;;;;9.43;8.52;;;;;;;32.19;33.82;94346.66;5056672;28;20052;-52
2021/07/15 03:48:04;;;;;;;11.23;8.57;;;;;;;32.31;33.49;94356.84;5056090;28;20057;-55
2021/07/15 03:50:32;;;;;;;11.15;8.40;;;;;;;32.13;33.89;94349.13;5056342;28;20044;-53
2021/07/15 03:53:01;;;;;;;9.60;8.48;;;;;;;32.25;33.28;94350.38;5053925;28;20458;-53
2021/07/15 03:55:31;;;;;;;10.02;9.10;;;;;;;32.12;33.83;94352.25;5055202;28;20079;-53
2021/07/15 03:58:02;;;;;;;10.55;9.32;;;;;;;32.11;33.26;94350.75;5055318;28;20056;-51
2021/07/15 04:00:29;;;;;;;10.40;9.32;;;;;;;32.26;33.12;94351.91;5038499;28;20041;-58
2021/07/15 04:03:04;;;;;;;11.10;10.10;;;;;;;32.10;33.39;94354.63;5036985;28;20041;-52
2021/07/15 04:05:32;;;;;;;11.73;9.52;;;;;;;31.74;33.72;94350.06;5038956;28;20063;-52
2021/07/15 04:08:01;;;;;;;12.10;10.75;;;;;;;32.18;33.31;94351.31;5053961;28;20045;-52
2021/07/15 04:10:32;;;;;;;11.32;10.15;;;;;;;31.79;33.99;94357.69;5055971;28;20056;-53
2021/07/15 04:13:00;;;;;;;13.27;10.25;;;;;;;32.26;33.06;94357.31;5037631;28;20052;-53
2021/07/15 04:16:05;;;;;;;12.40;10.93;;;;;;;31.82;34.03;94362.25;5037914;28;20048;-53
2021/07/15 04:18:38;;;;;;;11.77;10.20;;;;;;;31.85;34.37;94350.59;5055514;28;20053;-52
2021/07/15 04:21:06;;;;;;;11.65;10.45;;;;;;;31.98;34.19;94352.59;5054929;28;20064;-53
2021/07/15 04:23:35;;;;;;;13.05;11.20;;;;;;;32.01;33.94;94351.75;5037848;28;20053;-54
2021/07/15 04:26:02;;;;;;;12.90;11.00;;;;;;;32.38;33.24;94345.81;5037754;28;20367;-52
2021/07/15 04:28:30;;;;;;;12.95;11.75;;;;;;;31.84;34.77;94354.47;5037214;28;20056;-51
2021/07/15 04:31:13;;;;;;;13.35;12.00;;;;;;;31.99;34.53;94346.00;5037866;28;20518;-52
2021/07/15 04:33:41;;;;;;;13.77;12.48;;;;;;;31.73;35.11;94348.56;5036561;28;20048;-52
2021/07/15 04:36:08;;;;;;;12.18;10.88;;;;;;;32.53;33.50;94353.53;5055499;28;20057;-54
2021/07/15 04:38:35;;;;;;;14.07;12.45;;;;;;;31.56;35.59;94347.00;5037650;28;20451;-52
2021/07/15 04:41:02;;;;;;;15.00;13.57;;;;;;;31.95;34.82;94356.16;5037668;28;20433;-54
2021/07/15 04:43:30;;;;;;;16.00;14.43;;;;;;;31.66;35.74;94346.00;5036751;28;20048;-54
2021/07/15 04:45:58;;;;;;;15.38;13.88;;;;;;;32.27;34.18;94353.47;5037675;28;20041;-52
2021/07/15 04:48:25;;;;;;;15.63;14.10;;;;;;;31.93;35.10;94353.13;5037546;28;20064;-54
2021/07/15 04:50:53;;;;;;;16.05;14.45;;;;;;;32.28;34.62;94349.56;5037321;28;20056;-57
2021/07/15 04:53:23;;;;;;;15.50;13.80;;;;;;;32.35;34.57;94354.78;5037034;28;20049;-53
2021/07/15 04:55:54;;;;;;;16.48;14.95;;;;;;;32.92;33.50;94363.34;5036493;28;20372;-56
2021/07/15 04:58:23;;;;;;;16.48;14.90;;;;;;;32.29;33.95;94356.50;5054292;28;20056;-53
2021/07/15 05:00:50;;;;;;;16.25;14.57;;;;;;;32.17;34.19;94359.84;5036904;28;20041;-52
2021/07/15 05:03:31;;;;;;;16.33;14.70;;;;;;;32.46;33.64;94366.06;5054323;28;20045;-55
2021/07/15 05:05:59;;;;;;;19.73;15.77;;;;;;;32.09;34.81;94364.69;5054018;28;20041;-53
2021/07/15 05:08:27;;;;;;;16.48;14.88;;;;;;;32.73;33.54;94359.56;5054479;28;20052;-52
2021/07/15 05:10:54;;;;;;;18.25;16.13;;;;;;;32.77;33.13;94368.34;5040732;28;20065;-52
2021/07/15 05:13:21;;;;;;;17.05;15.52;;;;;;;32.76;33.53;94361.41;5053133;28;20045;-53
2021/07/15 05:15:49;;;;;;;17.00;15.50;;;;;;;32.87;33.51;94361.16;5054860;28;20055;-51
2021/07/15 05:18:17;;;;;;;17.05;15.25;;;;;;;33.17;33.11;94368.03;5054370;28;20045;-54
2021/07/15 05:20:44;;;;;;;16.65;15.05;;;;;;;32.90;33.79;94369.19;5054948;28;20440;-55
2021/07/15 05:23:12;;;;;;;16.75;15.18;;;;;;;33.03;33.37;94375.38;5052534;28;20045;-53
2021/07/15 05:25:40;;;;;;;16.95;15.48;;;;;;;33.13;32.91;94361.97;5051014;28;20044;-52
2021/07/15 05:28:07;;;;;;;19.55;15.98;;;;;;;33.28;32.66;94373.91;5036121;28;20344;-53
2021/07/15 05:30:34;;;;;;;16.30;14.60;;;;;;;33.22;33.26;94370.22;5054684;28;20053;-52
2021/07/15 05:33:01;;;;;;;17.38;15.60;;;;;;;33.30;33.01;94366.09;5053978;28;20367;-53
2021/07/15 05:35:28;;;;;;;16.50;14.80;;;;;;;33.60;32.49;94373.75;5053499;28;20059;-55
2021/07/15 05:37:55;;;;;;;17.10;15.25;;;;;;;33.49;32.33;94367.88;5038904;28;20367;-54
2021/07/15 05:40:22;;;;;;;17.25;15.55;;;;;;;33.41;32.58;94374.72;5034594;28;20049;-52
2021/07/15 05:42:49;;;;;;;17.52;15.73;;;;;;;33.70;32.11;94378.06;5047451;28;20337;-52
2021/07/15 05:45:16;;;;;;;16.55;14.95;;;;;;;33.52;32.41;94369.72;5054562;28;20060;-51
2021/07/15 05:47:44;;;;;;;15.98;14.43;;;;;;;33.59;32.49;94372.25;5054200;28;20052;-52
2021/07/15 05:50:11;;;;;;;16.73;14.88;;;;;;;33.73;32.31;94365.59;5054372;28;20064;-53
2021/07/15 05:52:38;;;;;;;17.63;14.35;;;;;;;33.82;32.15;94373.81;5052715;28;20044;-53
2021/07/15 05:55:05;;;;;;;15.35;13.82;;;;;;;34.05;31.53;94378.16;5053909;28;20053;-52
2021/07/15 05:57:33;;;;;;;14.90;13.40;;;;;;;34.11;31.22;94362.13;5053231;28;20049;-52
2021/07/15 06:00:00;;;;;;;15.98;14.38;;;;;;;33.78;31.63;94367.00;5053995;28;20467;-52
2021/07/15 06:02:27;;;;;;;17.40;13.85;;;;;;;34.13;31.11;94365.91;5053541;28;20052;-52
2021/07/15 06:04:54;;;;;;;14.95;13.55;;;;;;;34.22;31.97;94373.38;5053335;28;20048;-53
2021/07/15 06:07:22;;;;;;;14.95;13.27;;;;;;;34.07;31.84;94367.63;5051334;28;20379;-52
2021/07/15 06:09:49;;;;;;;14.05;12.77;;;;;;;34.26;31.43;94363.91;5034346;28;20372;-53
2021/07/15 06:12:16;;;;;;;14.90;13.43;;;;;;;34.52;31.00;94359.19;5042318;28;20060;-55
2021/07/15 06:14:43;;;;;;;15.73;14.23;;;;;;;34.64;30.88;94354.91;5054071;28;20056;-53
2021/07/15 06:17:11;;;;;;;15.73;13.50;;;;;;;34.64;30.50;94354.91;5053724;28;20762;-52
2021/07/15 06:19:38;;;;;;;14.82;13.35;;;;;;;34.50;30.86;94353.44;5055286;28;20428;-53
2021/07/15 06:22:05;;;;;;;15.65;14.00;;;;;;;35.06;30.36;94355.34;5054630;28;20059;-53
2021/07/15 06:24:32;;;;;;;18.08;14.15;;;;;;;35.05;29.96;94355.78;5044621;28;20482;-54
2021/07/15 06:26:59;;;;;;;15.07;13.45;;;;;;;34.97;30.71;94349.13;5057680;28;20052;-54
2021/07/15 06:29:31;;;;;;;17.77;13.70;;;;;;;35.19;29.89;94358.00;5056865;28;20089;-54
2021/07/15 06:31:58;;;;;;;14.88;13.43;;;;;;;35.10;29.83;94347.81;5057071;28;20052;-54
2021/07/15 06:34:26;;;;;;;14.65;13.15;;;;;;;35.03;30.19;94352.78;5057576;28;20049;-54
2021/07/15 06:36:53;;;;;;;14.50;12.93;;;;;;;35.48;30.45;94342.16;5057300;28;20103;-55
2021/07/15 06:39:20;;;;;;;15.77;12.80;;;;;;;35.36;30.07;94343.00;5056736;28;20044;-52
2021/07/15 06:41:47;;;;;;;14.30;12.90;;;;;;;35.73;29.99;94343.16;5047356;28;20048;-56
2021/07/15 06:44:15;;;;;;;16.95;13.18;;;;;;;35.83;29.26;94344.69;5039947;28;20088;-53
2021/07/15 06:46:42;;;;;;;15.38;12.95;;;;;;;35.80;29.10;94326.53;5038776;28;20385;-53
2021/07/15 06:49:09;;;;;;;14.77;13.13;;;;;;;35.77;29.25;94333.63;5056939;28;20057;-53
2021/07/15 06:51:37;;;;;;;14.65;13.15;;;;;;;36.14;28.86;94334.47;5055980;28;20051;-55
2021/07/15 06:54:04;;;;;;;14.15;12.70;;;;;;;36.18;28.72;94333.59;5055357;28;20479;-51
2021/07/15 06:56:31;;;;;;;15.25;13.80;;;;;;;36.27;28.41;94328.16;5056829;28;20060;-55
2021/07/15 06:58:59;;;;;;;14.60;13.10;;;;;;;36.16;28.12;94331.31;5059063;23;20053;-54
2021/07/15 07:01:26;;;;;;;14.25;12.82;;;;;;;36.07;28.17;94332.06;5049364;28;20045;-53
2021/07/15 07:03:54;;;;;;;13.82;12.40;;;;;;;36.14;28.43;94329.03;5055835;28;20044;-58
2021/07/15 07:06:24;;;;;;;14.95;13.02;;;;;;;36.37;28.54;94332.41;5056721;28;20056;-53
2021/07/15 07:08:52;;;;;;;16.63;13.48;;;;;;;36.60;28.03;94326.34;5056870;28;20355;-54
2021/07/15 07:11:21;;;;;;;13.98;12.57;;;;;;;36.42;28.42;94329.06;5055682;28;20045;-54
2021/07/15 07:13:48;;;;;;;13.70;12.45;;;;;;;36.71;27.83;94315.78;5055487;28;20055;-53
2021/07/15 07:16:16;;;;;;;14.02;11.85;;;;;;;36.94;28.35;94321.78;5051093;28;20045;-55
2021/07/15 07:18:43;;;;;;;13.43;12.13;;;;;;;37.33;28.14;94320.03;5019144;28;20041;-53
2021/07/15 07:21:11;;;;;;;13.18;11.88;;;;;;;36.92;27.47;94316.03;5053850;28;20055;-53
2021/07/15 07:23:38;;;;;;;13.85;12.48;;;;;;;37.34;27.30;94311.41;5049832;28;20037;-54
2021/07/15 07:26:06;;;;;;;14.65;11.98;;;;;;;37.13;27.45;94315.09;5055587;28;20052;-56
2021/07/15 07:28:34;;;;;;;13.75;12.35;;;;;;;37.09;27.10;94298.16;5063155;28;20052;-55
2021/07/15 07:31:02;;;;;;;13.65;12.25;;;;;;;37.20;26.75;94301.13;5060321;28;20072;-54
2021/07/15 07:33:30;;;;;;;15.13;12.93;;;;;;;37.24;26.69;94304.47;5048553;28;20436;-56
2021/07/15 07:35:59;;;;;;;13.25;11.80;;;;;;;37.40;27.00;94302.59;5055256;28;20451;-53
2021/07/15 07:38:27;;;;;;;13.48;12.07;;;;;;;37.66;26.95;94298.22;5018805;28;20060;-54
2021/07/15 07:40:54;;;;;;;13.57;11.95;;;;;;;37.47;26.26;94302.25;5050598;28;20044;-56
2021/07/15 07:43:22;;;;;;;14.75;11.82;;;;;;;37.66;26.32;94298.22;5047294;28;20052;-55
2021/07/15 07:45:49;;;;;;;11.68;10.48;;;;;;;37.93;26.06;94295.38;5056158;28;20048;-54
2021/07/15 07:48:17;;;;;;;12.50;11.20;;;;;;;37.72;26.19;94299.13;5054917;28;20060;-54
2021/07/15 07:50:45;;;;;;;13.02;11.68;;;;;;;38.01;26.04;94292.31;5055761;28;20041;-53
2021/07/15 07:53:12;;;;;;;13.75;12.38;;;;;;;37.88;25.64;94293.28;5056100;28;20049;-53
2021/07/15 07:55:43;;;;;;;13.10;11.73;;;;;;;37.95;25.82;94295.66;5049441;28;20052;-54
2021/07/15 07:58:12;;;;;;;;;;;;;;;38.07;25.79;94293.16;5053963;28;20482;-58
2021/07/15 08:00:39;;;;;;;11.55;10.55;;;;;;;38.37;25.67;94283.84;5038003;28;19912;-56
2021/07/15 08:03:06;;;;;;;12.27;10.80;;;;;;;38.43;25.22;94286.69;5038339;28;20459;-54
2021/07/15 08:05:37;;;;;;;12.25;11.05;;;;;;;38.40;24.79;94282.91;5038295;28;20367;-56
2021/07/15 08:08:05;;;;;;;12.02;10.75;;;;;;;38.18;25.19;94283.25;5021450;28;20051;-54
2021/07/15 08:10:32;;;;;;;14.52;11.57;;;;;;;38.51;24.98;94282.34;5055721;28;20079;-54
2021/07/15 08:12:59;;;;;;;12.32;10.98;;;;;;;38.49;24.84;94285.56;5055764;28;20040;-55
2021/07/15 08:15:27;;;;;;;12.93;11.63;;;;;;;38.62;25.21;94281.81;5055672;28;20375;-54
2021/07/15 08:17:54;;;;;;;11.50;10.15;;;;;;;38.46;24.30;94286.50;5040152;28;20052;-54
2021/07/15 08:20:21;;;;;;;11.88;10.77;;;;;;;38.65;24.63;94280.91;5043794;28;20344;-53
2021/07/15 08:22:48;;;;;;;13.77;10.52;;;;;;;38.70;24.66;94283.72;5049815;28;20045;-54
2021/07/15 08:25:19;;;;;;;14.82;10.90;;;;;;;38.68;24.28;94279.97;5055515;28;20045;-54
2021/07/15 08:27:47;;;;;;;11.88;10.73;;;;;;;38.63;24.33;94272.44;5055171;28;20048;-56
2021/07/15 08:30:16;;;;;;;12.35;10.80;;;;;;;38.40;24.75;94277.44;5049382;28;20057;-54
2021/07/15 08:32:43;;;;;;;11.18;10.07;;;;;;;38.49;24.40;94269.16;5055532;28;20045;-55
2021/07/15 08:35:11;;;;;;;11.65;10.45;;;;;;;38.90;23.90;94266.69;5055240;28;20053;-54
2021/07/15 08:37:38;;;;;;;12.48;9.98;;;;;;;38.98;24.32;94267.03;5055265;28;20055;-54
2021/07/15 08:40:07;;;;;;;10.70;9.50;;;;;;;39.15;24.11;94271.59;5053726;28;20131;-53
2021/07/15 08:42:36;;;;;;;9.85;8.90;;;;;;;39.13;23.54;94265.84;5037056;28;20045;-57
2021/07/15 08:45:07;;;;;;;10.40;9.30;;;;;;;39.20;24.33;94264.69;5037017;28;20045;-55
2021/07/15 08:47:38;;;;;;;;;;;;;;;39.17;23.94;94255.47;5055545;28;20320;-54
2021/07/15 08:50:06;;;;;;;9.88;8.95;;;;;;;39.31;23.79;94266.84;5050700;28;19944;-56
2021/07/15 08:52:35;;;;;;;13.07;9.27;;;;;;;38.96;23.62;94259.31;5055175;28;20063;-53
2021/07/15 08:57:43;;;;;;;9.57;8.65;;;;;;;39.26;23.67;94251.09;5054605;28;20044;-54
2021/07/15 09:00:15;;;;;;;13.13;8.82;;;;;;;39.33;23.29;94250.72;5061504;28;20475;-53
2021/07/15 09:02:43;;;;;;;9.50;8.60;;;;;;;39.26;23.65;94262.03;5035070;28;20049;-56
2021/07/15 09:05:11;;;;;;;11.32;9.95;;;;;;;39.24;23.54;94253.56;5034891;28;20048;-55
2021/07/15 09:07:41;;;;;;;16.17;10.35;;;;;;;39.43;23.64;94260.31;5034643;28;20056;-54
2021/07/15 09:10:09;;;;;;;14.45;9.63;;;;;;;39.48;23.32;94245.94;5039691;28;20049;-55
2021/07/15 09:12:36;;;;;;;11.93;9.60;;;;;;;39.48;23.13;94259.63;5053602;28;20064;-55
2021/07/15 09:15:08;;;;;;;11.60;9.20;;;;;;;39.23;23.58;94252.06;5054829;28;20482;-54
2021/07/15 09:17:36;;;;;;;14.85;9.68;;;;;;;39.43;23.41;94243.91;5053505;28;20064;-55
2021/07/15 09:20:14;;;;;;;10.82;9.82;;;;;;;39.29;23.50;94258.34;5053042;28;20049;-53
2021/07/15 09:23:09;;;;;;;12.70;9.85;;;;;;;39.56;22.96;94251.78;5054542;28;20053;-53
2021/07/15 09:25:39;;;;;;;11.80;9.25;;;;;;;39.24;23.15;94248.09;5051944;28;20044;-53
2021/07/15 09:28:13;;;;;;;10.10;9.10;;;;;;;39.25;23.40;94235.94;5035442;28;20048;-53
2021/07/15 09:30:42;;;;;;;9.30;8.45;;;;;;;39.57;23.02;94237.66;5050471;28;20471;-55
2021/07/15 09:33:11;;;;;;;9.98;8.98;;;;;;;39.40;23.57;94242.13;5054390;28;20053;-55
2021/07/15 09:35:44;;;;;;;10.65;8.85;;;;;;;39.61;22.98;94226.53;5047488;28;20384;-55
2021/07/15 09:38:15;;;;;;;12.70;9.27;;;;;;;39.34;22.98;94227.63;5054072;28;20052;-58
2021/07/15 09:40:48;;;;;;;10.63;9.60;;;;;;;39.36;23.03;94227.91;5054151;28;20439;-54
2021/07/15 09:43:21;;;;;;;11.05;9.85;;;;;;;39.39;22.74;94227.69;5050908;28;20057;-53
2021/07/15 09:45:50;;;;;;;10.52;9.43;;;;;;;39.50;23.42;94232.56;5054134;28;20044;-57
2021/07/15 09:48:25;;;;;;;11.48;9.25;;;;;;;39.57;23.40;94224.00;5052854;28;20056;-55
2021/07/15 09:50:55;;;;;;;11.05;9.80;;;;;;;39.78;23.17;94225.47;5054343;28;20041;-54
2021/07/15 09:53:23;;;;;;;11.15;10.05;;;;;;;39.53;23.31;94220.69;5053979;28;20051;-54
2021/07/15 09:56:06;;;;;;;11.10;10.10;;;;;;;39.79;22.84;94228.97;5057304;28;20076;-52
2021/07/15 09:58:41;;;;;;;11.20;10.10;;;;;;;39.49;23.34;94233.78;5063622;28;20063;-54
2021/07/15 10:01:17;;;;;;;11.43;10.43;;;;;;;39.58;23.38;94222.00;5077382;28;20056;-54
2021/07/15 10:03:46;;;;;;;11.65;10.15;;;;;;;39.84;23.03;94222.09;5069575;28;20474;-54
2021/07/15 10:06:15;;;;;;;10.60;9.40;;;;;;;39.84;22.84;94214.63;5058256;28;20044;-55
2021/07/15 10:08:43;;;;;;;11.55;10.43;;;;;;;39.74;22.84;94207.78;5057027;28;20048;-53
2021/07/15 10:11:13;;;;;;;11.68;9.65;;;;;;;39.57;23.22;94217.78;5058032;28;20363;-55
2021/07/15 10:13:41;;;;;;;11.20;10.20;;;;;;;39.55;23.05;94212.00;5057726;28;20049;-54
2021/07/15 10:16:10;;;;;;;11.90;10.70;;;;;;;39.52;23.50;94205.50;5057889;28;20045;-54
2021/07/15 10:18:50;;;;;;;11.43;10.20;;;;;;;39.67;23.57;94200.75;5057597;28;20367;-55
2021/07/15 10:21:25;;;;;;;11.20;10.10;;;;;;;39.82;23.66;94191.69;5058046;28;20048;-54
2021/07/15 10:23:52;;;;;;;16.27;11.00;;;;;;;39.39;23.69;94194.13;5057345;28;20049;-56
2021/07/15 10:26:20;;;;;;;12.88;11.13;;;;;;;39.40;23.99;94198.38;5040649;28;20462;-53
2021/07/15 10:28:49;;;;;;;12.15;11.02;;;;;;;39.67;23.33;94191.78;5057651;28;20063;-55
2021/07/15 10:31:17;;;;;;;13.13;11.73;;;;;;;39.34;23.95;94192.09;5057605;28;20127;-54
2021/07/15 10:33:45;;;;;;;12.35;11.13;;;;;;;39.83;23.51;94183.03;5057329;28;20045;-54
2021/07/15 10:36:12;;;;;;;13.55;11.98;;;;;;;39.59;23.98;94179.75;5056460;28;20044;-54
2021/07/15 10:38:48;;;;;;;12.07;10.82;;;;;;;39.48;24.04;94180.31;5057468;28;20363;-53
2021/07/15 10:41:15;;;;;;;11.95;10.73;;;;;;;39.56;23.77;94180.69;5056476;28;20053;-54
2021/07/15 10:43:42;;;;;;;11.45;10.13;;;;;;;39.66;23.82;94177.34;5056903;28;20447;-56
2021/07/15 10:46:10;;;;;;;11.55;10.02;;;;;;;39.74;23.45;94181.19;5057397;28;20045;-58
2021/07/15 10:48:37;;;;;;;11.07;9.90;;;;;;;39.63;23.69;94172.84;5057304;28;20447;-54
2021/07/15 10:51:05;;;;;;;10.10;8.88;;;;;;;39.61;23.76;94180.78;5056059;28;20045;-55
2021/07/15 10:53:35;;;;;;;10.95;9.77;;;;;;;39.51;23.75;94178.66;5056761;28;20056;-54
2021/07/15 10:56:03;;;;;;;12.52;9.88;;;;;;;39.67;23.44;94170.66;5057402;28;20053;-53
2021/07/15 10:58:45;;;;;;;15.25;9.95;;;;;;;39.65;23.41;94170.38;5037408;28;20090;-53
2021/07/15 11:01:36;;;;;;;11.02;9.45;;;;;;;39.57;23.40;94166.56;5057225;28;20040;-53
2021/07/15 11:04:08;;;;;;;9.93;8.93;;;;;;;39.74;23.77;94164.75;5056590;28;20044;-55
2021/07/15 11:06:56;;;;;;;10.00;9.10;;;;;;;39.96;23.36;94169.00;5056616;28;20068;-53
2021/07/15 11:09:23;;;;;;;10.63;8.95;;;;;;;39.74;23.22;94170.22;5056956;28;20462;-54
2021/07/15 11:11:51;;;;;;;10.13;9.10;;;;;;;39.79;23.08;94168.78;5051634;28;20044;-54
2021/07/15 11:14:49;;;;;;;10.02;9.13;;;;;;;39.82;23.20;94164.34;5056022;28;20045;-54
2021/07/15 11:17:29;;;;;;;11.02;9.10;;;;;;;39.73;23.31;94152.31;5044988;28;20056;-53
2021/07/15 11:20:28;;;;;;;10.60;9.38;;;;;;;39.78;23.41;94153.59;5056060;28;20056;-57
2021/07/15 11:23:09;;;;;;;10.73;8.40;;;;;;;39.85;23.24;94147.00;5055389;28;20045;-54
2021/07/15 11:25:41;;;;;;;9.25;8.32;;;;;;;39.75;23.68;94144.38;5056632;28;20041;-53
2021/07/15 11:28:12;;;;;;;23.33;20.92;;;;;;;39.62;23.31;94151.44;5058310;28;20051;-56
2021/07/15 11:30:41;;;;;;;11.35;9.60;;;;;;;39.54;23.32;94140.16;5076775;28;20041;-53
2021/07/15 11:33:21;;;;;;;10.90;9.23;;;;;;;39.57;23.13;94144.69;5064619;28;20045;-53
2021/07/15 11:36:06;;;;;;;12.00;9.35;;;;;;;39.71;23.21;94132.91;5056619;28;20045;-57
2021/07/15 11:38:38;;;;;;;10.38;9.20;;;;;;;39.60;23.41;94138.25;5056015;28;20052;-55
2021/07/15 11:41:13;;;;;;;9.93;8.82;;;;;;;39.49;23.32;94146.28;5056210;28;20045;-53